DTTF/GAF METAR and TAF weather

Enter ICAO airport designator
Station Type Date Time Source
DTTF METAR 2019/02/21 00:00 UTC NOAA

DTTF 210000Z 03006KT 9999 FEW033 09/02 Q1024 NOSIG


Station Type Date Time Source
DTTF Decoded METAR 2019/02/21 00:00 UTC NOAA

Gafsa, Tunisia (DTTF) 34-25N 008-49E 314M
Feb 20, 2019 - 07:00 PM EST / 2019.02.21 0000 UTC
Wind: from the NNE (030 degrees) at 7 MPH (6 KT):0
Visibility: greater than 7 mile(s):0
Sky conditions: mostly clear
Temperature: 48 F (9 C)
Dew Point: 35 F (2 C)
Relative Humidity: 61%
Pressure (altimeter): 30.24 in. Hg (1024 hPa)
ob: DTTF 210000Z 03006KT 9999 FEW033 09/02 Q1024 NOSIG
cycle: 0

Station Type Date Time Source
DTTF TAF 2018/07/22 13:33 UTC NOAA

TAF DTTF 221200Z 2213/2322 22010KT 7000 NSC PROB30
TEMPO 2216/2220 4000 -TSRA FEW026CB


Example: see airport list